createdAt,value
2023-10-09T00:01:55.724Z,15.77
2023-10-09T00:04:25.790Z,15.52
2023-10-09T00:06:56.504Z,18.02
2023-10-09T00:09:26.519Z,15.63
2023-10-09T00:11:59.862Z,15.60
2023-10-09T00:14:35.953Z,14.13
2023-10-09T00:17:15.021Z,17.02
2023-10-09T00:19:45.887Z,16.10
2023-10-09T00:22:23.374Z,14.02
2023-10-09T00:25:15.981Z,12.60
2023-10-09T00:27:48.117Z,15.05
2023-10-09T00:30:31.993Z,13.25
2023-10-09T00:33:08.145Z,11.57
2023-10-09T00:35:56.421Z,13.95
2023-10-09T00:38:35.764Z,14.65
2023-10-09T00:41:11.980Z,13.65
2023-10-09T00:43:45.754Z,15.70
2023-10-09T00:46:26.072Z,13.70
2023-10-09T00:49:05.188Z,13.68
2023-10-09T00:51:38.634Z,15.10
2023-10-09T00:54:17.220Z,13.95
2023-10-09T00:56:59.301Z,12.35
2023-10-09T00:59:30.595Z,8.50
2023-10-09T01:02:06.564Z,8.45
2023-10-09T01:04:39.412Z,8.82
2023-10-09T01:07:23.473Z,9.52
2023-10-09T01:09:56.673Z,10.32
2023-10-09T01:12:31.081Z,9.93
2023-10-09T01:15:03.191Z,9.38
2023-10-09T01:17:47.417Z,8.55
2023-10-09T01:20:34.375Z,11.35
2023-10-09T01:23:05.198Z,10.20
2023-10-09T01:25:45.353Z,10.35
2023-10-09T01:28:17.819Z,12.02
2023-10-09T01:30:49.673Z,16.27
2023-10-09T01:33:29.289Z,21.50
2023-10-09T01:36:03.684Z,22.73
2023-10-09T01:38:42.737Z,17.17
2023-10-09T01:41:22.059Z,15.45
2023-10-09T01:43:53.768Z,14.68
2023-10-09T01:46:25.427Z,11.63
2023-10-09T01:48:57.029Z,9.52
2023-10-09T01:51:35.518Z,9.85
2023-10-09T01:54:06.551Z,9.55
2023-10-09T01:56:41.813Z,7.60
2023-10-09T01:59:13.478Z,16.98
2023-10-09T02:01:49.991Z,18.02
2023-10-09T02:04:22.603Z,20.85
2023-10-09T02:06:54.869Z,21.45
2023-10-09T02:09:32.998Z,21.48
2023-10-09T02:12:04.867Z,22.02
2023-10-09T02:14:40.098Z,23.50
2023-10-09T02:17:12.462Z,25.25
2023-10-09T02:19:44.908Z,22.85
2023-10-09T02:22:16.137Z,21.13
2023-10-09T02:24:50.587Z,18.92
2023-10-09T02:27:58.734Z,18.98
2023-10-09T02:30:29.701Z,19.73
2023-10-09T02:33:11.527Z,25.17
2023-10-09T02:35:44.794Z,22.23
2023-10-09T02:38:19.574Z,25.90
2023-10-09T02:41:05.994Z,25.52
2023-10-09T02:43:49.995Z,24.58
2023-10-09T02:46:35.186Z,23.80
2023-10-09T02:49:06.359Z,21.30
2023-10-09T02:51:44.097Z,24.88
2023-10-09T02:54:21.038Z,29.48
2023-10-09T02:57:00.371Z,27.80
2023-10-09T02:59:32.556Z,26.80
2023-10-09T03:02:03.569Z,27.98
2023-10-09T03:04:34.990Z,28.42
2023-10-09T03:07:06.420Z,26.25
2023-10-09T03:09:37.872Z,26.70
2023-10-09T03:12:12.356Z,26.63
2023-10-09T03:14:44.900Z,24.98
2023-10-09T03:17:15.903Z,24.65
2023-10-09T03:19:48.224Z,22.63
2023-10-09T03:22:19.326Z,20.45
2023-10-09T03:24:51.834Z,22.20
2023-10-09T03:27:25.452Z,23.88
2023-10-09T03:29:56.697Z,23.63
2023-10-09T03:32:27.582Z,19.98
2023-10-09T03:35:01.508Z,18.90
2023-10-09T03:37:36.858Z,18.80
2023-10-09T03:40:17.853Z,19.13
2023-10-09T03:42:49.805Z,18.52
2023-10-09T03:45:27.495Z,18.70
2023-10-09T03:48:18.106Z,19.80
2023-10-09T03:50:51.102Z,18.67
2023-10-09T03:53:21.941Z,18.08
2023-10-09T03:55:52.954Z,17.58
2023-10-09T03:58:24.405Z,17.02
2023-10-09T04:00:57.257Z,18.75
2023-10-09T04:03:29.801Z,19.40
2023-10-09T04:06:02.699Z,18.58
2023-10-09T04:08:35.722Z,17.65
2023-10-09T04:11:18.225Z,16.17
2023-10-09T04:13:49.504Z,15.32
2023-10-09T04:16:37.109Z,15.75
2023-10-09T04:19:13.407Z,13.65
2023-10-09T04:21:44.609Z,12.27
2023-10-09T04:24:15.890Z,10.82
2023-10-09T04:26:47.495Z,10.93
2023-10-09T04:29:40.999Z,10.27
2023-10-09T04:32:19.496Z,7.72
2023-10-09T04:34:51.111Z,8.68
2023-10-09T04:37:40.253Z,8.73
2023-10-09T04:40:15.784Z,8.52
2023-10-09T04:43:00.246Z,6.53
2023-10-09T04:45:46.191Z,6.90
2023-10-09T04:48:34.841Z,5.82
2023-10-09T04:51:36.377Z,3.63
2023-10-09T04:54:17.011Z,3.00
2023-10-09T04:56:57.099Z,3.17
2023-10-09T04:59:28.285Z,2.50
2023-10-09T05:02:00.547Z,2.45
2023-10-09T05:04:40.714Z,2.00
2023-10-09T05:07:38.937Z,3.38
2023-10-09T05:10:22.205Z,3.75
2023-10-09T05:13:00.342Z,3.50
2023-10-09T05:15:32.006Z,3.40
2023-10-09T05:18:11.492Z,3.17
2023-10-09T05:21:05.070Z,3.30
2023-10-09T05:23:46.626Z,3.60
2023-10-09T05:26:36.530Z,2.83
2023-10-09T05:29:27.420Z,2.95
2023-10-09T05:32:08.058Z,3.60
2023-10-09T05:34:58.651Z,4.40
2023-10-09T05:37:35.723Z,5.22
2023-10-09T05:40:37.344Z,5.90
2023-10-09T05:43:08.519Z,5.90
2023-10-09T05:45:57.268Z,4.38
2023-10-09T05:48:28.182Z,4.10
2023-10-09T05:51:11.627Z,4.25
2023-10-09T05:53:48.531Z,4.35
2023-10-09T05:56:46.890Z,4.38
2023-10-09T05:59:35.814Z,3.92
2023-10-09T06:02:24.515Z,4.72
2023-10-09T06:05:00.028Z,3.80
2023-10-09T06:07:50.789Z,2.50
2023-10-09T06:10:39.696Z,4.22
2023-10-09T06:13:30.933Z,4.22
2023-10-09T06:16:30.929Z,7.35
2023-10-09T06:19:10.658Z,5.47
2023-10-09T06:21:44.686Z,4.65
2023-10-09T06:24:15.887Z,4.97
2023-10-09T06:27:16.093Z,4.32
2023-10-09T06:29:46.974Z,4.10
2023-10-09T06:32:21.009Z,4.38
2023-10-09T06:34:59.327Z,4.88
2023-10-09T06:37:32.963Z,4.80
2023-10-09T06:40:32.672Z,6.10
2023-10-09T06:43:09.498Z,6.38
2023-10-09T06:45:46.879Z,15.52
2023-10-09T06:48:36.201Z,16.27
2023-10-09T06:51:29.551Z,10.15
2023-10-09T06:54:01.182Z,7.18
2023-10-09T06:56:32.869Z,7.60
2023-10-09T06:59:17.255Z,7.35
2023-10-09T07:02:06.508Z,6.88
2023-10-09T07:04:40.786Z,10.43
2023-10-09T07:07:17.122Z,11.63
2023-10-09T07:10:08.444Z,9.80
2023-10-09T07:12:44.884Z,7.90
2023-10-09T07:15:48.000Z,8.15
2023-10-09T07:18:25.371Z,9.15
2023-10-09T07:21:03.801Z,9.80
2023-10-09T07:23:34.949Z,9.10
2023-10-09T07:26:29.662Z,10.25
2023-10-09T07:29:55.549Z,11.45
2023-10-09T07:32:45.799Z,11.40
2023-10-09T07:35:36.084Z,11.18
2023-10-09T07:38:11.017Z,13.27
2023-10-09T07:41:02.491Z,12.45
2023-10-09T07:43:41.477Z,9.32
2023-10-09T07:46:34.559Z,11.13
2023-10-09T07:49:16.459Z,12.52
2023-10-09T07:51:49.214Z,10.60
2023-10-09T07:54:34.160Z,13.18
2023-10-09T07:57:20.100Z,11.00
2023-10-09T08:00:26.128Z,11.68
2023-10-09T08:03:02.519Z,10.65
2023-10-09T08:05:35.706Z,10.80
2023-10-09T08:08:36.132Z,11.88
2023-10-09T08:11:30.244Z,10.68
2023-10-09T08:14:04.434Z,11.90
2023-10-09T08:16:43.141Z,11.30
2023-10-09T08:19:43.446Z,10.52
2023-10-09T08:22:40.360Z,11.85
2023-10-09T08:25:28.529Z,15.48
2023-10-09T08:28:22.095Z,13.43
2023-10-09T08:30:57.164Z,13.50
2023-10-09T08:36:07.106Z,14.50
2023-10-09T08:38:38.167Z,12.98
2023-10-09T08:41:22.697Z,12.13
2023-10-09T08:43:55.444Z,11.48
2023-10-09T08:46:31.064Z,20.20
2023-10-09T08:49:02.679Z,16.65
2023-10-09T08:51:37.533Z,12.48
2023-10-09T08:54:16.921Z,13.60
2023-10-09T08:56:54.025Z,14.45
2023-10-09T08:59:24.857Z,13.70
2023-10-09T09:01:56.362Z,12.70
2023-10-09T09:04:43.776Z,11.98
2023-10-09T09:07:41.438Z,11.75
2023-10-09T09:10:25.459Z,12.88
2023-10-09T09:13:02.968Z,11.35
2023-10-09T09:15:33.931Z,11.52
2023-10-09T09:18:13.960Z,10.23
2023-10-09T09:20:47.731Z,12.32
2023-10-09T09:23:26.004Z,12.73
2023-10-09T09:26:06.108Z,13.25
2023-10-09T09:28:41.313Z,11.05
2023-10-09T09:31:24.480Z,12.40
2023-10-09T09:34:05.616Z,10.80
2023-10-09T09:36:40.227Z,10.07
2023-10-09T09:39:21.410Z,11.45
2023-10-09T09:41:54.393Z,11.45
2023-10-09T09:44:32.924Z,15.77
2023-10-09T09:47:04.142Z,14.35
2023-10-09T09:49:36.130Z,13.48
2023-10-09T09:52:12.216Z,13.85
2023-10-09T09:54:43.196Z,13.20
2023-10-09T09:57:24.111Z,14.07
2023-10-09T09:59:57.578Z,14.27
2023-10-09T10:02:37.897Z,16.10
2023-10-09T10:05:13.643Z,18.90
2023-10-09T10:07:51.733Z,15.07
2023-10-09T10:10:50.114Z,15.80
2023-10-09T10:13:41.163Z,12.85
2023-10-09T10:16:22.224Z,16.52
2023-10-09T10:19:09.705Z,14.90
2023-10-09T10:21:40.659Z,10.75
2023-10-09T10:24:33.443Z,11.80
2023-10-09T10:27:42.586Z,13.20
2023-10-09T10:30:15.756Z,14.30
2023-10-09T10:32:57.165Z,19.25
2023-10-09T10:35:46.884Z,19.60
2023-10-09T10:38:44.365Z,17.02
2023-10-09T10:41:24.531Z,16.15
2023-10-09T10:43:55.486Z,18.73
2023-10-09T10:46:31.773Z,15.40
2023-10-09T10:49:27.934Z,12.68
2023-10-09T10:52:24.624Z,14.10
2023-10-09T10:55:19.941Z,14.93
2023-10-09T10:57:58.163Z,13.00
2023-10-09T11:00:48.180Z,18.38
2023-10-09T11:03:32.226Z,17.73
2023-10-09T11:06:16.982Z,14.98
2023-10-09T11:09:01.262Z,14.65
2023-10-09T11:11:34.851Z,18.15
2023-10-09T11:14:18.062Z,22.98
2023-10-09T11:16:52.030Z,14.65
2023-10-09T11:19:30.386Z,13.15
2023-10-09T11:22:09.645Z,20.92
2023-10-09T11:24:40.729Z,17.17
2023-10-09T11:27:20.884Z,18.42
2023-10-09T11:29:52.326Z,16.35
2023-10-09T11:32:27.415Z,19.67
2023-10-09T11:35:30.214Z,17.13
2023-10-09T11:38:01.801Z,16.05
2023-10-09T11:40:54.068Z,17.02
2023-10-09T11:43:47.169Z,15.30
2023-10-09T11:46:38.675Z,15.00
2023-10-09T11:49:24.071Z,13.73
2023-10-09T11:52:27.335Z,28.60
2023-10-09T11:54:58.914Z,51.53
2023-10-09T11:57:35.508Z,41.00
2023-10-09T12:00:30.872Z,74.35
2023-10-09T12:03:07.954Z,80.50
2023-10-09T12:05:39.797Z,94.13
2023-10-09T12:08:10.889Z,110.75
2023-10-09T12:10:42.457Z,78.40
2023-10-09T12:13:17.781Z,50.05
2023-10-09T12:15:48.853Z,38.58
2023-10-09T12:18:21.064Z,33.22
2023-10-09T12:20:57.392Z,28.23
2023-10-09T12:23:30.063Z,27.45
2023-10-09T12:26:01.212Z,29.00
2023-10-09T12:28:35.110Z,30.77
2023-10-09T12:31:06.084Z,29.52
2023-10-09T12:33:41.871Z,27.95
2023-10-09T12:36:22.094Z,23.23
2023-10-09T12:38:56.256Z,20.73
2023-10-09T12:41:28.934Z,22.20
2023-10-09T12:44:04.078Z,24.92
2023-10-09T12:46:39.814Z,23.77
2023-10-09T12:49:10.870Z,21.38
2023-10-09T12:51:42.517Z,19.35
2023-10-09T12:54:16.957Z,20.10
2023-10-09T12:56:53.223Z,19.70
2023-10-09T12:59:26.323Z,19.92
2023-10-09T13:02:00.303Z,19.00
2023-10-09T13:04:34.157Z,18.40
2023-10-09T13:07:06.564Z,15.63
2023-10-09T13:09:38.032Z,14.68
2023-10-09T13:12:20.230Z,17.50
2023-10-09T13:14:54.343Z,18.98
2023-10-09T13:17:29.330Z,16.90
2023-10-09T13:20:00.570Z,17.08
2023-10-09T13:22:32.614Z,16.27
2023-10-09T13:25:06.533Z,18.55
2023-10-09T13:27:37.891Z,18.05
2023-10-09T13:30:11.292Z,18.02
2023-10-09T13:32:42.141Z,20.88
2023-10-09T13:35:17.034Z,20.45
2023-10-09T13:37:56.141Z,17.15
2023-10-09T13:40:31.804Z,16.65
2023-10-09T13:43:02.887Z,15.15
2023-10-09T13:45:40.734Z,15.00
2023-10-09T13:48:13.804Z,15.98
2023-10-09T13:50:44.974Z,16.30
2023-10-09T13:53:20.141Z,16.27
2023-10-09T13:55:53.630Z,18.13
2023-10-09T13:58:24.525Z,17.90
2023-10-09T14:00:55.763Z,17.58
2023-10-09T14:03:31.284Z,18.13
2023-10-09T14:06:12.374Z,17.73
2023-10-09T14:08:45.072Z,17.88
2023-10-09T14:11:15.725Z,19.42
2023-10-09T14:13:48.374Z,18.42
2023-10-09T14:16:29.618Z,18.25
2023-10-09T14:19:01.461Z,16.02
2023-10-09T14:21:32.381Z,16.10
2023-10-09T14:24:02.952Z,16.35
2023-10-09T14:26:36.449Z,15.52
2023-10-09T14:29:08.844Z,16.10
2023-10-09T14:31:41.064Z,17.13
2023-10-09T14:34:11.767Z,18.90
2023-10-09T14:36:45.990Z,19.50
2023-10-09T14:39:21.005Z,17.30
2023-10-09T14:41:53.070Z,17.30
2023-10-09T14:44:25.733Z,16.70
2023-10-09T14:46:57.736Z,15.45
2023-10-09T14:49:28.648Z,15.05
2023-10-09T14:52:01.249Z,15.93
2023-10-09T14:54:31.928Z,15.98
2023-10-09T14:57:02.861Z,15.63
2023-10-09T14:59:33.399Z,14.50
2023-10-09T15:02:04.267Z,13.88
2023-10-09T15:04:38.007Z,13.80
2023-10-09T15:07:12.795Z,14.05
2023-10-09T15:09:46.759Z,12.80
2023-10-09T15:12:17.722Z,13.52
2023-10-09T15:14:48.234Z,12.93
2023-10-09T15:17:21.229Z,13.25
2023-10-09T15:19:57.162Z,12.85
2023-10-09T15:22:30.727Z,13.07
2023-10-09T15:25:04.564Z,12.63
2023-10-09T15:27:35.234Z,12.27
2023-10-09T15:30:08.992Z,13.10
2023-10-09T15:32:40.300Z,12.93
2023-10-09T15:35:17.070Z,12.75
2023-10-09T15:37:54.421Z,13.05
2023-10-09T15:40:26.760Z,12.98
2023-10-09T15:42:58.710Z,13.80
2023-10-09T15:45:33.526Z,14.60
2023-10-09T15:48:06.885Z,12.18
2023-10-09T15:50:37.602Z,13.52
2023-10-09T15:53:12.394Z,12.13
2023-10-09T15:55:43.194Z,11.25
2023-10-09T15:58:14.260Z,11.50
2023-10-09T16:00:47.649Z,10.93
2023-10-09T16:03:19.154Z,10.13
2023-10-09T16:05:49.805Z,9.35
2023-10-09T16:08:21.443Z,8.90
2023-10-09T16:10:52.160Z,8.93
2023-10-09T16:13:23.493Z,8.95
2023-10-09T16:15:53.361Z,8.18
2023-10-09T16:18:23.448Z,8.27
2023-10-09T16:20:54.189Z,8.10
2023-10-09T16:23:24.545Z,8.60
2023-10-09T16:25:54.636Z,7.78
2023-10-09T16:28:24.648Z,6.93
2023-10-09T16:30:56.045Z,6.97
2023-10-09T16:33:28.017Z,7.45
2023-10-09T16:36:01.494Z,6.10
2023-10-09T16:38:33.357Z,5.30
2023-10-09T16:41:12.502Z,5.20
2023-10-09T16:43:47.382Z,5.65
2023-10-09T16:46:18.975Z,5.10
2023-10-09T16:48:53.719Z,5.93
2023-10-09T16:51:24.050Z,5.40
2023-10-09T16:53:56.891Z,6.28
2023-10-09T16:56:34.838Z,5.85
2023-10-09T16:59:05.986Z,6.72
2023-10-09T17:01:36.020Z,6.20
2023-10-09T17:04:13.687Z,5.65
2023-10-09T17:06:45.902Z,5.80
2023-10-09T17:09:16.905Z,6.30
2023-10-09T17:11:46.870Z,6.38
2023-10-09T17:14:18.963Z,6.43
2023-10-09T17:16:49.520Z,6.68
2023-10-09T17:19:19.635Z,7.03
2023-10-09T17:21:51.837Z,6.75
2023-10-09T17:24:22.658Z,6.68
2023-10-09T17:26:57.735Z,6.88
2023-10-09T17:29:29.143Z,7.07
2023-10-09T17:31:59.146Z,8.20
2023-10-09T17:34:29.454Z,9.07
2023-10-09T17:36:59.590Z,8.45
2023-10-09T17:39:29.596Z,8.38
2023-10-09T17:42:00.171Z,7.90
2023-10-09T17:44:33.143Z,7.60
2023-10-09T17:47:03.575Z,7.60
2023-10-09T17:49:33.832Z,8.50
2023-10-09T17:52:03.755Z,8.32
2023-10-09T17:54:36.636Z,8.27
2023-10-09T17:57:06.522Z,8.50
2023-10-09T17:59:37.023Z,8.55
2023-10-09T18:02:07.308Z,7.38
2023-10-09T18:04:37.532Z,8.00
2023-10-09T18:07:07.514Z,6.85
2023-10-09T18:09:37.646Z,7.68
2023-10-09T18:12:07.428Z,7.60
2023-10-09T18:14:37.297Z,6.57
2023-10-09T18:17:08.777Z,5.90
2023-10-09T18:19:41.034Z,5.68
2023-10-09T18:22:14.176Z,4.82
2023-10-09T18:24:44.687Z,4.70
2023-10-09T18:27:18.761Z,4.10
2023-10-09T18:29:50.530Z,4.22
2023-10-09T18:32:21.147Z,3.83
2023-10-09T18:34:51.082Z,3.92
2023-10-09T18:37:21.143Z,3.55
2023-10-09T18:39:51.734Z,3.67
2023-10-09T18:42:21.986Z,3.05
2023-10-09T18:44:51.972Z,3.58
2023-10-09T18:47:22.261Z,3.92
2023-10-09T18:49:52.232Z,3.78
2023-10-09T18:52:23.524Z,3.50
2023-10-09T18:54:54.090Z,3.95
2023-10-09T18:57:26.081Z,3.70
2023-10-09T18:59:56.029Z,4.03
2023-10-09T19:02:28.133Z,4.03
2023-10-09T19:04:58.293Z,4.07
2023-10-09T19:07:29.187Z,4.00
2023-10-09T19:09:59.129Z,3.92
2023-10-09T19:12:28.918Z,3.75
2023-10-09T19:14:59.415Z,3.30
2023-10-09T19:17:29.360Z,3.60
2023-10-09T19:19:59.439Z,4.25
2023-10-09T19:22:29.506Z,4.55
2023-10-09T19:25:00.922Z,4.55
2023-10-09T19:27:32.425Z,3.75
2023-10-09T19:30:06.286Z,3.97
2023-10-09T19:32:36.517Z,3.90
2023-10-09T19:35:06.866Z,3.72
2023-10-09T19:37:36.810Z,4.10
2023-10-09T19:40:10.181Z,4.38
2023-10-09T19:42:41.004Z,4.35
2023-10-09T19:45:12.863Z,4.15
2023-10-09T19:47:42.841Z,4.47
2023-10-09T19:50:16.174Z,4.90
2023-10-09T19:52:50.155Z,3.78
2023-10-09T19:55:23.714Z,4.32
2023-10-09T19:57:56.735Z,4.22
2023-10-09T20:00:26.560Z,4.68
2023-10-09T20:02:56.720Z,5.07
2023-10-09T20:05:29.690Z,4.93
2023-10-09T20:08:01.225Z,5.63
2023-10-09T20:10:32.848Z,5.07
2023-10-09T20:13:05.985Z,6.10
2023-10-09T20:15:36.800Z,6.00
2023-10-09T20:18:11.406Z,5.90
2023-10-09T20:20:47.403Z,5.32
2023-10-09T20:23:20.190Z,6.30
2023-10-09T20:26:01.071Z,6.60
2023-10-09T20:28:30.968Z,6.68
2023-10-09T20:31:03.462Z,6.70
2023-10-09T20:33:38.166Z,6.47
2023-10-09T20:36:18.569Z,6.30
2023-10-09T20:38:51.198Z,7.60
2023-10-09T20:41:29.537Z,6.88
2023-10-09T20:44:07.427Z,7.32
2023-10-09T20:46:38.306Z,6.93
2023-10-09T20:49:09.869Z,7.90
2023-10-09T20:51:54.949Z,7.28
2023-10-09T20:54:29.792Z,8.70
2023-10-09T20:57:05.048Z,9.25
2023-10-09T20:59:37.894Z,8.25
2023-10-09T21:02:08.821Z,8.77
2023-10-09T21:04:38.803Z,8.63
2023-10-09T21:07:14.056Z,9.65
2023-10-09T21:09:50.052Z,10.05
2023-10-09T21:12:24.226Z,10.27
2023-10-09T21:14:54.193Z,11.40
2023-10-09T21:17:24.673Z,11.20
2023-10-09T21:19:54.824Z,11.85
2023-10-09T21:22:24.905Z,12.30
2023-10-09T21:24:57.685Z,13.48
2023-10-09T21:27:27.626Z,13.32
2023-10-09T21:30:00.416Z,13.23
2023-10-09T21:32:42.719Z,13.23
2023-10-09T21:35:19.660Z,13.80
2023-10-09T21:38:03.260Z,12.55
2023-10-09T21:40:35.361Z,12.35
2023-10-09T21:43:19.019Z,12.30
2023-10-09T21:45:51.524Z,12.70
2023-10-09T21:48:21.626Z,12.68
2023-10-09T21:51:05.571Z,13.25
2023-10-09T21:53:36.372Z,13.55
2023-10-09T21:56:16.140Z,14.13
2023-10-09T21:58:50.391Z,12.38
2023-10-09T22:01:32.909Z,14.35
2023-10-09T22:04:02.841Z,12.13
2023-10-09T22:06:35.976Z,13.75
2023-10-09T22:09:09.615Z,14.15
2023-10-09T22:11:39.575Z,16.27
2023-10-09T22:14:09.430Z,16.35
2023-10-09T22:16:42.364Z,17.20
2023-10-09T22:19:16.876Z,16.83
2023-10-09T22:21:49.620Z,15.68
2023-10-09T22:24:20.892Z,14.95
2023-10-09T22:26:53.208Z,15.48
2023-10-09T22:29:29.553Z,15.85
2023-10-09T22:32:01.635Z,14.57
2023-10-09T22:34:44.748Z,13.95
2023-10-09T22:37:21.673Z,14.10
2023-10-09T22:39:54.106Z,13.00
2023-10-09T22:42:28.862Z,11.45
2023-10-09T22:45:07.002Z,11.90
2023-10-09T22:47:46.755Z,9.40
2023-10-09T22:50:24.425Z,12.23
2023-10-09T22:52:57.910Z,9.70
2023-10-09T22:55:37.789Z,8.93
2023-10-09T22:58:15.225Z,9.25
2023-10-09T23:00:56.526Z,10.07
2023-10-09T23:03:30.918Z,10.45
2023-10-09T23:06:17.311Z,10.00
2023-10-09T23:08:58.137Z,9.07
2023-10-09T23:11:33.460Z,9.98
2023-10-09T23:14:43.579Z,8.68
2023-10-09T23:17:20.351Z,9.77
2023-10-09T23:20:01.355Z,10.60
2023-10-09T23:22:40.167Z,7.97
2023-10-09T23:25:33.631Z,9.48
2023-10-09T23:28:31.790Z,9.55
2023-10-09T23:31:02.748Z,10.43
2023-10-09T23:33:34.837Z,12.88
2023-10-09T23:36:07.865Z,11.30
2023-10-09T23:38:57.586Z,14.02
2023-10-09T23:41:28.147Z,12.88
2023-10-09T23:43:58.168Z,12.57
2023-10-09T23:46:32.401Z,9.75
2023-10-09T23:49:02.212Z,9.13
2023-10-09T23:51:32.089Z,8.70
2023-10-09T23:54:12.165Z,12.25
2023-10-09T23:56:49.228Z,11.63
2023-10-09T23:59:41.010Z,10.75
